Time;durP1;ratioP1;P1;durP2;ratioP2;P2;SDS_P1;SDS_P2;PMS_P1;PMS_P2;Temp;Humidity;BMP_temperature;BMP_pressure;BME280_temperature;BME280_humidity;BME280_pressure;Samples;Min_cycle;Max_cycle;Signal;HPM_P1;HPM_P2
2021/03/13 00:01:18;;;;;;;0.63;0.50;;;;;;;1.87;83.10;94893.88;5112172;28;20196;-78
2021/03/13 00:03:44;;;;;;;0.33;0.33;;;;;;;1.95;82.81;94889.03;5093803;28;20206;-77
2021/03/13 00:06:09;;;;;;;0.53;0.40;;;;;;;1.92;83.34;94884.94;5093638;28;20177;-78
2021/03/13 00:08:37;;;;;;;0.33;0.33;;;;;;;1.90;83.44;94886.78;5095137;28;20188;-78
2021/03/13 00:11:04;;;;;;;0.30;0.30;;;;;;;1.94;83.31;94889.94;5111860;28;20196;-77
2021/03/13 00:13:29;;;;;;;2.00;0.50;;;;;;;1.89;83.90;94886.91;5111951;28;20171;-78
2021/03/13 00:15:54;;;;;;;0.93;0.50;;;;;;;1.88;83.83;94888.66;5105391;28;20632;-78
2021/03/13 00:18:20;;;;;;;1.63;0.67;;;;;;;1.88;83.69;94890.41;5093876;28;20195;-78
2021/03/13 00:20:45;;;;;;;1.03;0.47;;;;;;;1.89;83.91;94887.72;5112046;28;20195;-78
2021/03/13 00:23:11;;;;;;;1.23;0.40;;;;;;;1.78;83.88;94885.13;5093780;28;20248;-78
2021/03/13 00:25:37;;;;;;;1.53;0.43;;;;;;;1.84;83.90;94876.16;5089921;28;20192;-78
2021/03/13 00:28:03;;;;;;;0.70;0.40;;;;;;;1.89;83.26;94881.78;5077848;28;20274;-77
2021/03/13 00:30:31;;;;;;;0.37;0.37;;;;;;;1.92;82.82;94879.81;5080184;28;20269;-78
2021/03/13 00:33:18;;;;;;;0.63;0.33;;;;;;;2.01;82.59;94887.75;5096981;28;20176;-78
2021/03/13 00:35:45;;;;;;;0.57;0.43;;;;;;;2.04;82.75;94890.94;5100261;28;20206;-78
2021/03/13 00:38:10;;;;;;;3.13;0.50;;;;;;;2.03;82.91;94883.31;5117333;28;20176;-78
2021/03/13 00:40:37;;;;;;;0.63;0.60;;;;;;;2.04;82.82;94877.31;5117174;28;20328;-77
2021/03/13 00:43:05;;;;;;;1.37;0.60;;;;;;;2.05;82.49;94881.50;5100305;28;20182;-78
2021/03/13 00:45:31;;;;;;;0.90;0.40;;;;;;;2.10;81.82;94875.09;5100137;28;20176;-78
2021/03/13 00:47:58;;;;;;;2.73;0.67;;;;;;;2.14;81.97;94865.44;5099979;28;20351;-77
2021/03/13 00:50:25;;;;;;;1.20;0.40;;;;;;;2.14;82.40;94861.16;5100155;28;20194;-77
2021/03/13 00:52:51;;;;;;;0.70;0.43;;;;;;;2.13;81.97;94858.69;5100268;28;20176;-78
2021/03/13 00:55:17;;;;;;;0.90;0.53;;;;;;;2.17;82.44;94852.41;5116953;28;20179;-78
2021/03/13 00:57:42;;;;;;;0.33;0.30;;;;;;;2.14;82.63;94853.47;5099890;28;20176;-78
2021/03/13 01:00:10;;;;;;;0.40;0.30;;;;;;;2.23;81.55;94839.97;5100178;28;20176;-77
2021/03/13 01:02:36;;;;;;;0.77;0.37;;;;;;;2.26;82.11;94826.09;5100153;28;20187;-77
2021/03/13 01:05:03;;;;;;;1.13;0.40;;;;;;;2.32;81.72;94825.66;5099757;28;20203;-78
2021/03/13 01:07:28;;;;;;;0.50;0.40;;;;;;;2.28;81.61;94822.50;5099755;28;20175;-77
2021/03/13 01:09:54;;;;;;;0.90;0.30;;;;;;;2.34;81.40;94816.09;5100106;28;20538;-78
2021/03/13 01:12:19;;;;;;;0.47;0.40;;;;;;;2.27;81.96;94815.72;5118181;28;20647;-78
2021/03/13 01:14:45;;;;;;;0.47;0.40;;;;;;;2.37;81.85;94828.66;5118383;28;20178;-78
2021/03/13 01:17:10;;;;;;;0.20;0.20;;;;;;;2.41;81.38;94821.59;5100182;28;20174;-78
2021/03/13 01:19:35;;;;;;;0.67;0.40;;;;;;;2.40;82.23;94815.66;5099527;28;20187;-78
2021/03/13 01:22:01;;;;;;;0.63;0.50;;;;;;;2.49;81.97;94814.94;5099820;28;20196;-78
2021/03/13 01:24:26;;;;;;;1.23;0.40;;;;;;;2.43;82.16;94809.47;5117819;28;20192;-78
2021/03/13 01:26:51;;;;;;;0.50;0.50;;;;;;;2.47;81.84;94798.88;5099771;28;20179;-78
2021/03/13 01:29:17;;;;;;;1.17;0.40;;;;;;;2.43;81.91;94802.59;5099879;28;20198;-78
2021/03/13 01:31:42;;;;;;;1.33;0.50;;;;;;;2.43;82.08;94796.66;5099805;28;20238;-78
2021/03/13 01:34:07;;;;;;;3.40;0.63;;;;;;;2.39;82.24;94779.91;5099654;28;20179;-78
2021/03/13 01:36:33;;;;;;;0.90;0.50;;;;;;;2.37;82.44;94782.53;5099742;28;20180;-78
2021/03/13 01:38:58;;;;;;;2.10;0.60;;;;;;;2.36;82.49;94772.41;5097269;28;20198;-78
2021/03/13 01:41:23;;;;;;;1.00;0.70;;;;;;;2.27;83.06;94774.75;5096132;28;20215;-78
2021/03/13 01:43:49;;;;;;;2.63;0.70;;;;;;;2.28;82.66;94762.75;5096499;28;20256;-78
2021/03/13 01:46:14;;;;;;;1.53;0.43;;;;;;;2.21;82.69;94766.72;5096406;28;20179;-78
2021/03/13 01:48:47;;;;;;;0.57;0.33;;;;;;;2.22;82.67;94763.22;5114740;28;20172;-78
2021/03/13 01:51:12;;;;;;;1.23;0.70;;;;;;;2.18;83.05;94752.38;5114225;28;20662;-77
2021/03/13 01:53:38;;;;;;;2.07;0.60;;;;;;;2.20;82.54;94737.72;5096370;28;20184;-78
2021/03/13 01:56:03;;;;;;;3.13;0.87;;;;;;;2.20;82.62;94742.84;5096100;28;20547;-78
2021/03/13 01:58:28;;;;;;;0.60;0.60;;;;;;;2.18;83.09;94737.00;5101441;28;20561;-78
2021/03/13 02:00:54;;;;;;;2.23;0.80;;;;;;;2.20;82.68;94735.16;5076097;28;20275;-78
2021/03/13 02:03:19;;;;;;;1.33;0.50;;;;;;;2.19;82.88;94730.16;5095809;28;20728;-78
2021/03/13 02:05:47;;;;;;;2.70;0.67;;;;;;;2.19;83.28;94725.84;5095832;28;20184;-78
2021/03/13 02:08:27;;;;;;;2.53;0.60;;;;;;;2.20;83.35;94734.34;5096038;28;20178;-78
2021/03/13 02:11:17;;;;;;;2.83;0.70;;;;;;;2.18;83.52;94728.53;5078708;28;20678;-78
2021/03/13 02:14:02;;;;;;;2.80;0.60;;;;;;;2.27;83.24;94732.94;5095620;28;20184;-77
2021/03/13 02:16:34;;;;;;;1.87;0.60;;;;;;;2.28;83.58;94727.69;5095637;28;20176;-78
2021/03/13 02:19:40;;;;;;;3.83;1.10;;;;;;;2.35;83.95;94722.91;5095928;28;20207;-77
2021/03/13 02:22:06;;;;;;;1.80;0.70;;;;;;;2.44;83.34;94724.78;5114069;28;20198;-78
2021/03/13 02:24:52;;;;;;;4.17;0.87;;;;;;;2.41;83.75;94716.53;5095127;28;20203;-78
2021/03/13 02:27:20;;;;;;;3.97;0.90;;;;;;;2.44;83.35;94709.41;5096008;28;20609;-78
2021/03/13 02:29:48;;;;;;;2.80;0.80;;;;;;;2.51;83.19;94709.75;5078824;28;20182;-78
2021/03/13 02:32:20;;;;;;;3.73;1.17;;;;;;;2.58;83.24;94704.97;5113801;28;20275;-77
2021/03/13 02:34:47;;;;;;;1.00;0.57;;;;;;;2.66;82.29;94705.19;5095112;28;20304;-77
2021/03/13 02:37:22;;;;;;;2.43;0.90;;;;;;;2.62;82.88;94707.16;5095451;28;20176;-78
2021/03/13 02:39:50;;;;;;;3.83;1.20;;;;;;;2.72;82.07;94704.69;5095624;28;20178;-78
2021/03/13 02:42:15;;;;;;;1.73;0.73;;;;;;;2.74;82.11;94706.22;5095446;28;20578;-77
2021/03/13 02:44:43;;;;;;;1.80;0.87;;;;;;;2.75;82.22;94702.72;5074461;28;20225;-78
2021/03/13 02:47:10;;;;;;;2.37;1.10;;;;;;;2.75;82.47;94692.44;5091997;28;20551;-77
2021/03/13 02:49:37;;;;;;;2.33;0.93;;;;;;;2.77;82.51;94692.31;5058352;28;20187;-78
2021/03/13 02:52:03;;;;;;;3.73;0.90;;;;;;;2.76;82.51;94691.50;5074952;28;20279;-77
2021/03/13 02:54:30;;;;;;;4.83;1.27;;;;;;;2.80;82.65;94680.06;5093018;28;20265;-78
2021/03/13 02:56:56;;;;;;;5.53;1.47;;;;;;;2.90;82.20;94682.72;5095289;28;20558;-78
2021/03/13 02:59:22;;;;;;;5.40;0.90;;;;;;;2.92;82.37;94696.25;5095160;28;20172;-78
2021/03/13 03:01:48;;;;;;;4.37;1.17;;;;;;;2.94;82.20;94673.84;5113129;28;20275;-78
2021/03/13 03:04:14;;;;;;;1.63;0.90;;;;;;;2.92;82.44;94665.47;5111557;28;20668;-78
2021/03/13 03:06:42;;;;;;;2.33;0.97;;;;;;;2.90;82.99;94657.06;5094605;28;20646;-78
2021/03/13 03:09:09;;;;;;;4.00;0.93;;;;;;;2.96;82.69;94663.47;5094994;28;20635;-78
2021/03/13 03:11:35;;;;;;;3.10;1.00;;;;;;;2.93;82.65;94661.97;5094714;28;20294;-78
2021/03/13 03:14:00;;;;;;;2.83;0.70;;;;;;;2.96;81.93;94661.72;5094788;28;20174;-78
2021/03/13 03:16:26;;;;;;;3.33;0.90;;;;;;;2.95;82.38;94660.09;5094372;28;20199;-78
2021/03/13 03:18:56;;;;;;;1.47;0.70;;;;;;;2.95;81.84;94651.59;5094387;28;20213;-78
2021/03/13 03:21:21;;;;;;;1.37;0.87;;;;;;;3.00;82.14;94665.66;5094606;28;20707;-78
2021/03/13 03:23:47;;;;;;;2.70;0.80;;;;;;;2.95;82.52;94651.59;5094610;28;20192;-78
2021/03/13 03:26:12;;;;;;;2.10;0.70;;;;;;;2.97;82.27;94647.13;5094460;28;20188;-78
2021/03/13 03:28:38;;;;;;;2.20;0.77;;;;;;;3.02;82.09;94647.59;5112415;28;20600;-78
2021/03/13 03:31:03;;;;;;;3.27;1.00;;;;;;;2.97;82.63;94637.69;5112499;28;20280;-78
2021/03/13 03:33:29;;;;;;;5.30;0.63;;;;;;;3.00;83.00;94640.00;5094241;28;20247;-78
2021/03/13 03:35:54;;;;;;;2.20;0.80;;;;;;;3.00;82.80;94634.06;5112479;28;20183;-78
2021/03/13 03:38:19;;;;;;;1.30;0.87;;;;;;;2.99;82.96;94642.69;5112079;28;20258;-78
2021/03/13 03:40:45;;;;;;;1.60;0.80;;;;;;;2.95;83.29;94639.56;5094455;28;20196;-78
2021/03/13 03:43:16;;;;;;;1.93;0.90;;;;;;;2.95;83.42;94652.41;5094284;28;20591;-78
2021/03/13 03:45:42;;;;;;;3.43;0.80;;;;;;;2.96;83.34;94648.06;5112225;28;20692;-78
2021/03/13 03:48:14;;;;;;;1.40;0.70;;;;;;;2.94;84.22;94634.56;5093827;28;20168;-78
2021/03/13 03:50:43;;;;;;;3.60;0.90;;;;;;;2.95;83.97;94646.47;5112324;28;20772;-78
2021/03/13 03:53:12;;;;;;;2.37;1.10;;;;;;;2.85;84.43;94641.25;5094497;28;20171;-78
2021/03/13 03:55:41;;;;;;;1.00;0.70;;;;;;;2.89;83.72;94646.94;5093982;28;20179;-78
2021/03/13 03:58:08;;;;;;;1.07;0.70;;;;;;;2.88;83.83;94641.00;5077379;28;20542;-78
2021/03/13 04:00:34;;;;;;;4.73;0.77;;;;;;;2.91;83.42;94630.47;5093536;28;20201;-77
2021/03/13 04:03:01;;;;;;;2.70;0.50;;;;;;;2.93;83.41;94623.50;5076374;28;20644;-78
2021/03/13 04:05:27;;;;;;;1.47;0.60;;;;;;;2.85;83.74;94631.00;5112059;28;20192;-78
2021/03/13 04:07:53;;;;;;;3.07;0.90;;;;;;;2.94;83.74;94634.56;5093959;28;20168;-77
2021/03/13 04:10:18;;;;;;;0.40;0.40;;;;;;;2.90;83.45;94631.44;5093706;28;20238;-78
2021/03/13 04:12:45;;;;;;;1.50;0.60;;;;;;;2.92;83.16;94629.56;5076834;28;20179;-78
2021/03/13 04:15:11;;;;;;;0.50;0.50;;;;;;;2.89;83.87;94624.66;5093723;28;20168;-78
2021/03/13 04:17:37;;;;;;;3.20;0.70;;;;;;;2.83;83.65;94620.88;5093787;28;20720;-78
2021/03/13 04:20:05;;;;;;;1.07;0.50;;;;;;;2.79;83.46;94622.03;5076345;28;20213;-78
2021/03/13 04:22:32;;;;;;;1.47;0.63;;;;;;;2.81;83.62;94617.59;5093706;28;20233;-78
2021/03/13 04:24:57;;;;;;;2.07;0.50;;;;;;;2.83;82.83;94612.38;5093713;28;20276;-78
2021/03/13 04:27:23;;;;;;;0.73;0.47;;;;;;;2.87;82.43;94618.03;5093723;28;20606;-78
2021/03/13 04:29:48;;;;;;;0.50;0.50;;;;;;;2.88;82.27;94610.22;5093623;28;20691;-78
2021/03/13 04:32:15;;;;;;;1.67;0.60;;;;;;;2.89;81.76;94618.72;5110340;28;20207;-77
2021/03/13 04:34:42;;;;;;;0.27;0.27;;;;;;;2.88;82.19;94617.91;5093522;28;20581;-78
2021/03/13 04:37:08;;;;;;;0.73;0.40;;;;;;;2.87;82.63;94618.84;5110596;28;20233;-77
2021/03/13 04:39:33;;;;;;;0.87;0.40;;;;;;;2.93;81.75;94620.94;5076606;28;20181;-78
2021/03/13 04:41:59;;;;;;;0.53;0.43;;;;;;;2.96;82.29;94612.16;5093197;28;20235;-78
2021/03/13 04:44:24;;;;;;;1.80;0.60;;;;;;;2.90;82.79;94618.59;5093208;28;20191;-78
2021/03/13 04:46:50;;;;;;;0.73;0.50;;;;;;;2.91;82.54;94619.41;5076672;28;20207;-78
2021/03/13 04:49:16;;;;;;;0.73;0.47;;;;;;;2.95;81.95;94606.22;5093528;28;20172;-78
2021/03/13 04:51:41;;;;;;;3.53;0.73;;;;;;;3.01;81.53;94603.19;5093367;28;20219;-78
2021/03/13 04:54:08;;;;;;;1.27;0.67;;;;;;;2.98;81.46;94589.78;5111374;28;20249;-78
2021/03/13 04:56:33;;;;;;;3.20;0.60;;;;;;;2.95;81.61;94590.84;5076540;28;20182;-78
2021/03/13 04:58:59;;;;;;;1.73;0.63;;;;;;;2.90;82.48;94589.59;5093398;28;20181;-78
2021/03/13 05:01:24;;;;;;;1.90;0.60;;;;;;;2.97;81.43;94580.47;5093419;28;20587;-78
2021/03/13 05:03:50;;;;;;;2.00;0.90;;;;;;;2.97;81.49;94580.47;5092986;28;20201;-78
2021/03/13 05:06:15;;;;;;;5.00;1.63;;;;;;;2.99;81.09;94589.66;5092895;28;20679;-78
2021/03/13 05:08:40;;;;;;;3.70;1.87;;;;;;;2.98;81.40;94580.31;5093342;28;20175;-78
2021/03/13 05:11:07;;;;;;;0.90;0.60;;;;;;;3.01;81.33;94579.28;5111264;28;20203;-78
2021/03/13 05:13:33;;;;;;;2.37;0.90;;;;;;;3.02;81.44;94584.28;5092941;28;20162;-78
2021/03/13 05:15:59;;;;;;;1.37;0.80;;;;;;;2.98;81.71;94575.19;5114983;28;20180;-78
2021/03/13 05:18:24;;;;;;;3.73;1.03;;;;;;;3.05;81.91;94570.38;5097115;28;20207;-78
2021/03/13 05:20:50;;;;;;;1.73;0.80;;;;;;;2.96;82.75;94571.94;5097103;28;20223;-78
2021/03/13 05:23:15;;;;;;;4.00;1.00;;;;;;;3.02;82.04;94570.66;5096994;28;20649;-78
2021/03/13 05:25:43;;;;;;;1.27;0.60;;;;;;;3.00;82.09;94573.31;5114529;28;20187;-78
2021/03/13 05:28:08;;;;;;;3.23;0.80;;;;;;;2.99;82.31;94570.88;5097132;28;20176;-78
2021/03/13 05:30:33;;;;;;;1.50;0.60;;;;;;;2.95;82.77;94564.38;5115027;28;20198;-78
2021/03/13 05:32:58;;;;;;;1.17;0.70;;;;;;;2.91;82.87;94566.38;5115080;28;20175;-78
2021/03/13 05:35:24;;;;;;;1.93;0.60;;;;;;;2.94;82.43;94545.63;5096364;28;20683;-78
2021/03/13 05:37:49;;;;;;;3.37;0.77;;;;;;;3.05;81.56;94552.44;5114986;28;20670;-78
2021/03/13 05:40:15;;;;;;;1.60;0.80;;;;;;;2.99;82.04;94546.03;5096551;28;20177;-78
2021/03/13 05:42:40;;;;;;;5.23;1.07;;;;;;;3.11;80.76;94539.91;5114665;28;20548;-77
2021/03/13 05:45:07;;;;;;;1.87;0.70;;;;;;;3.10;81.59;94528.03;5096075;28;20646;-78
2021/03/13 05:47:34;;;;;;;2.90;0.87;;;;;;;2.99;81.93;94525.53;5075744;28;20185;-78
2021/03/13 05:50:15;;;;;;;2.37;0.70;;;;;;;3.08;81.50;94523.94;5059657;28;20222;-78
2021/03/13 05:52:40;;;;;;;2.10;0.60;;;;;;;3.09;81.49;94521.28;5093118;28;20169;-77
2021/03/13 05:55:07;;;;;;;1.90;0.70;;;;;;;3.09;81.21;94513.59;5092780;28;20670;-78
2021/03/13 05:57:33;;;;;;;1.40;0.60;;;;;;;3.10;81.51;94528.03;5088840;28;20237;-78
2021/03/13 06:00:00;;;;;;;2.17;0.80;;;;;;;3.21;80.85;94513.50;5079315;28;20177;-78
2021/03/13 06:02:25;;;;;;;2.87;1.77;;;;;;;3.17;81.29;94512.94;5096194;28;20690;-78
2021/03/13 06:04:51;;;;;;;2.93;1.50;;;;;;;3.26;80.78;94519.84;5114065;28;20195;-78
2021/03/13 06:07:22;;;;;;;2.70;1.13;;;;;;;3.28;80.80;94507.72;5095822;28;20176;-77
2021/03/13 06:09:55;;;;;;;4.07;1.40;;;;;;;3.26;80.64;94509.59;5114527;28;20164;-77
2021/03/13 06:12:21;;;;;;;3.00;1.70;;;;;;;3.34;80.13;94498.69;5095903;28;20206;-77
2021/03/13 06:14:47;;;;;;;3.50;1.57;;;;;;;3.35;80.62;94492.59;5078888;28;20191;-77
2021/03/13 06:17:14;;;;;;;3.63;1.33;;;;;;;3.46;79.83;94502.00;5096120;28;20208;-77
2021/03/13 06:19:56;;;;;;;4.37;2.57;;;;;;;3.41;79.65;94499.81;5092301;28;20191;-77
2021/03/13 06:22:30;;;;;;;6.47;3.20;;;;;;;3.50;79.21;94475.09;5092625;28;20261;-77
2021/03/13 06:25:17;;;;;;;2.63;1.60;;;;;;;3.54;79.54;94476.50;5092870;28;20388;-77
2021/03/13 06:27:45;;;;;;;11.40;3.83;;;;;;;3.56;79.11;94483.09;5075511;28;20185;-77
2021/03/13 06:30:13;;;;;;;1.53;1.10;;;;;;;3.52;79.27;94479.16;5111451;28;20217;-77
2021/03/13 06:32:38;;;;;;;9.07;3.40;;;;;;;3.63;78.35;94473.94;5095731;28;20259;-77
2021/03/13 06:35:20;;;;;;;7.30;3.50;;;;;;;3.61;78.52;94483.50;5113618;28;20620;-77
2021/03/13 06:37:46;;;;;;;5.83;1.37;;;;;;;3.61;78.45;94470.66;5112641;28;20172;-78
2021/03/13 06:40:27;;;;;;;6.97;1.60;;;;;;;3.59;79.58;94464.06;5112295;28;20230;-77
2021/03/13 06:42:52;;;;;;;2.43;0.90;;;;;;;3.65;78.85;94446.38;5113672;28;20195;-78
2021/03/13 06:45:22;;;;;;;5.40;1.10;;;;;;;3.65;79.37;94455.84;5112190;28;20667;-78
2021/03/13 06:47:48;;;;;;;8.37;2.73;;;;;;;3.66;79.29;94457.47;5095391;28;20182;-78
2021/03/13 06:50:25;;;;;;;4.37;2.77;;;;;;;3.79;79.14;94452.06;5111961;28;20533;-78
2021/03/13 06:53:08;;;;;;;3.50;1.90;;;;;;;3.92;78.36;94447.50;5112372;28;20229;-77
2021/03/13 06:55:34;;;;;;;4.07;1.63;;;;;;;3.96;77.63;94446.25;5111889;28;20182;-77
2021/03/13 06:58:11;;;;;;;2.77;1.40;;;;;;;4.02;78.32;94448.31;5112166;28;20180;-78
2021/03/13 07:00:38;;;;;;;1.43;0.93;;;;;;;4.01;77.63;94449.25;5111789;28;20290;-77
2021/03/13 07:03:13;;;;;;;4.47;1.40;;;;;;;3.99;77.66;94438.31;5095082;28;20187;-77
2021/03/13 07:05:41;;;;;;;5.07;1.20;;;;;;;4.04;76.82;94430.19;5094676;28;20171;-77
2021/03/13 07:08:23;;;;;;;2.20;1.00;;;;;;;4.19;77.31;94436.53;5113267;28;20198;-77
2021/03/13 07:10:49;;;;;;;2.50;1.13;;;;;;;4.27;76.05;94431.53;5094403;28;20685;-77
2021/03/13 07:13:49;;;;;;;5.10;1.17;;;;;;;4.51;75.98;94410.53;5094764;28;20176;-77
2021/03/13 07:16:29;;;;;;;2.60;1.00;;;;;;;4.65;74.93;94414.44;4993553;28;20223;-77
2021/03/13 07:19:12;;;;;;;5.13;1.00;;;;;;;4.55;74.73;94404.16;5010491;28;20201;-78
2021/03/13 07:21:39;;;;;;;2.20;0.73;;;;;;;4.53;74.86;94408.63;4993660;28;20199;-77
2021/03/13 07:24:06;;;;;;;2.23;1.00;;;;;;;4.74;74.59;94393.00;5010120;28;20299;-77
2021/03/13 07:26:43;;;;;;;4.37;0.97;;;;;;;4.74;74.56;94401.53;4993389;28;20198;-77
2021/03/13 07:29:11;;;;;;;5.73;0.93;;;;;;;4.71;73.77;94403.59;5011053;28;20195;-77
2021/03/13 07:31:41;;;;;;;3.73;1.03;;;;;;;4.84;74.17;94389.44;4993931;28;20319;-76
2021/03/13 07:34:20;;;;;;;3.03;0.93;;;;;;;4.81;73.62;94406.94;4991261;28;20278;-76
2021/03/13 07:36:50;;;;;;;2.53;1.00;;;;;;;4.75;73.68;94410.88;4989481;28;20239;-76
2021/03/13 07:39:17;;;;;;;3.33;1.07;;;;;;;4.71;73.26;94412.13;5001863;28;20286;-76
2021/03/13 07:41:53;;;;;;;2.00;0.90;;;;;;;4.67;74.04;94407.38;4994160;28;20211;-76
2021/03/13 07:44:18;;;;;;;4.00;1.47;;;;;;;4.70;73.68;94413.06;4989928;28;20222;-77
2021/03/13 07:46:43;;;;;;;3.00;1.50;;;;;;;4.73;72.14;94387.06;4993655;28;20191;-76
2021/03/13 07:49:10;;;;;;;1.57;1.10;;;;;;;4.88;72.22;94387.44;5002076;28;20262;-76
2021/03/13 07:51:35;;;;;;;2.83;1.20;;;;;;;4.89;71.33;94380.50;5027629;28;20208;-76
2021/03/13 07:54:01;;;;;;;2.40;1.73;;;;;;;4.80;70.03;94366.75;5096718;28;20736;-75
2021/03/13 07:56:27;;;;;;;3.90;1.60;;;;;;;4.94;70.22;94352.59;5091276;28;20211;-75
2021/03/13 07:58:52;;;;;;;3.53;1.40;;;;;;;4.99;70.35;94358.13;5074073;28;20172;-76
2021/03/13 08:01:44;;;;;;;10.07;1.07;;;;;;;5.02;69.75;94371.50;5089566;28;20595;-76
2021/03/13 08:04:09;;;;;;;2.70;1.40;;;;;;;5.09;70.31;94346.03;5095352;27;20212;-76
2021/03/13 08:06:58;;;;;;;3.03;1.30;;;;;;;5.18;69.39;94350.31;5103757;28;20243;-76
2021/03/13 08:09:24;;;;;;;2.00;1.50;;;;;;;5.23;68.97;94345.53;5085963;28;20199;-76
2021/03/13 08:11:49;;;;;;;2.07;1.70;;;;;;;5.13;69.33;94352.50;5109920;28;20215;-76
2021/03/13 08:14:30;;;;;;;1.00;0.80;;;;;;;5.27;69.57;94338.34;5108464;28;20213;-76
2021/03/13 08:17:06;;;;;;;3.70;1.30;;;;;;;5.34;68.51;94335.03;5092068;28;20670;-76
2021/03/13 08:19:33;;;;;;;2.43;1.63;;;;;;;5.45;68.46;94336.59;5093651;28;20167;-76
2021/03/13 08:22:18;;;;;;;3.80;1.40;;;;;;;5.57;68.14;94342.34;5093339;28;20207;-76
2021/03/13 08:24:51;;;;;;;2.37;1.97;;;;;;;5.70;67.77;94342.78;5093242;28;20192;-76
2021/03/13 08:27:38;;;;;;;1.53;1.00;;;;;;;5.94;65.58;94331.94;5090055;28;20188;-77
2021/03/13 08:30:24;;;;;;;2.60;1.30;;;;;;;6.12;64.19;94331.91;5073472;28;20168;-75
2021/03/13 08:33:03;;;;;;;1.03;1.00;;;;;;;6.25;63.82;94324.56;5074090;28;20168;-75
2021/03/13 08:35:43;;;;;;;3.70;1.03;;;;;;;6.53;64.70;94323.44;5085609;28;20167;-75
2021/03/13 08:38:10;;;;;;;1.70;0.70;;;;;;;6.47;63.12;94313.75;5073188;28;20184;-76
2021/03/13 08:40:44;;;;;;;1.33;0.97;;;;;;;6.43;61.45;94304.69;5073229;28;20271;-76
2021/03/13 08:43:35;;;;;;;3.13;1.43;;;;;;;6.22;59.90;94292.16;5073318;28;20172;-75
2021/03/13 08:46:01;;;;;;;1.43;0.53;;;;;;;6.23;61.56;94301.53;5072946;28;20651;-75
2021/03/13 08:48:54;;;;;;;1.33;0.50;;;;;;;6.23;61.16;94293.78;5088026;28;20180;-76
2021/03/13 08:51:19;;;;;;;1.20;0.90;;;;;;;6.13;60.01;94298.22;5088697;28;20223;-76
2021/03/13 08:53:45;;;;;;;2.70;0.70;;;;;;;6.12;59.83;94306.13;5096273;28;20541;-75
2021/03/13 08:56:38;;;;;;;3.60;1.73;;;;;;;6.12;62.11;94308.69;5096031;28;20639;-76
2021/03/13 08:59:17;;;;;;;3.63;0.83;;;;;;;6.06;61.63;94310.09;5097068;28;20253;-76
2021/03/13 09:01:59;;;;;;;2.90;0.93;;;;;;;6.08;61.65;94279.00;5097363;28;20195;-76
2021/03/13 09:04:24;;;;;;;4.30;1.00;;;;;;;6.14;61.68;94271.50;5096985;28;20611;-76
2021/03/13 09:06:49;;;;;;;1.10;0.80;;;;;;;6.21;60.63;94269.94;5097167;28;20179;-76
2021/03/13 09:09:16;;;;;;;2.53;1.17;;;;;;;6.32;60.44;94253.41;5098179;28;20176;-76
2021/03/13 09:11:43;;;;;;;4.40;1.60;;;;;;;6.40;59.50;94262.94;5115119;28;20208;-74
2021/03/13 09:14:09;;;;;;;2.70;0.97;;;;;;;6.44;59.94;94262.47;5096196;28;20179;-75
2021/03/13 09:16:36;;;;;;;3.10;0.90;;;;;;;6.64;60.54;94242.44;5093103;28;20177;-76
2021/03/13 09:19:02;;;;;;;1.77;0.87;;;;;;;6.72;59.87;94249.41;5085366;28;20172;-76
2021/03/13 09:21:44;;;;;;;5.00;2.43;;;;;;;7.01;58.82;94236.09;5093108;28;20210;-76
2021/03/13 09:24:12;;;;;;;12.27;3.70;;;;;;;7.08;58.70;94221.59;5115860;27;20592;-77
2021/03/13 09:26:38;;;;;;;5.20;3.20;;;;;;;6.96;58.35;94240.91;5102700;28;20179;-76
2021/03/13 09:29:04;;;;;;;2.07;0.77;;;;;;;6.97;58.65;94233.00;5088197;27;20175;-76
2021/03/13 09:31:31;;;;;;;3.93;0.80;;;;;;;7.12;58.16;94230.63;5100126;28;20206;-78
2021/03/13 09:34:19;;;;;;;3.20;1.00;;;;;;;7.55;57.94;94224.38;5105968;28;20176;-77
2021/03/13 09:36:46;;;;;;;3.73;1.20;;;;;;;7.53;57.41;94210.81;5123803;28;20203;-77
2021/03/13 09:39:12;;;;;;;3.37;0.90;;;;;;;7.43;57.09;94237.78;5110562;27;20171;-75
2021/03/13 09:41:37;;;;;;;1.77;0.90;;;;;;;7.26;57.26;94232.59;5118741;28;20299;-77
2021/03/13 09:44:03;;;;;;;2.40;0.97;;;;;;;7.58;58.19;94208.53;5081524;28;20249;-77
2021/03/13 09:46:29;;;;;;;3.33;1.50;;;;;;;7.23;57.17;94216.59;5086827;28;20267;-77
2021/03/13 09:48:55;;;;;;;6.13;1.80;;;;;;;7.39;57.27;94204.50;5089407;27;20544;-76
2021/03/13 09:51:20;;;;;;;1.60;0.70;;;;;;;7.30;57.04;94207.25;5109912;28;20200;-77
2021/03/13 09:53:45;;;;;;;2.17;0.60;;;;;;;7.14;57.85;94204.66;5101574;28;20601;-77
2021/03/13 09:56:11;;;;;;;1.13;0.50;;;;;;;7.02;56.97;94194.63;5104587;28;20243;-78
2021/03/13 09:58:36;;;;;;;2.20;0.60;;;;;;;7.01;57.86;94182.69;5125354;28;20176;-75
2021/03/13 10:01:01;;;;;;;1.93;0.63;;;;;;;6.96;57.40;94186.72;5118350;27;20203;-78
2021/03/13 10:03:27;;;;;;;2.87;1.63;;;;;;;6.90;58.15;94164.94;5105088;27;20180;-76
2021/03/13 10:05:54;;;;;;;3.53;1.30;;;;;;;6.93;57.45;94177.53;5098579;28;20180;-76
2021/03/13 10:08:20;;;;;;;2.23;1.50;;;;;;;6.66;58.17;94167.47;5090842;28;20233;-74
2021/03/13 10:10:48;;;;;;;2.00;0.70;;;;;;;6.74;57.60;94181.19;5092279;28;20291;-75
2021/03/13 10:13:16;;;;;;;1.70;0.93;;;;;;;6.76;58.47;94175.88;5110369;27;20214;-75
2021/03/13 10:15:42;;;;;;;1.83;1.40;;;;;;;6.90;58.05;94170.09;5096099;28;20172;-75
2021/03/13 10:18:15;;;;;;;2.10;0.60;;;;;;;6.80;58.13;94170.25;5095382;28;20269;-75
2021/03/13 10:20:50;;;;;;;1.07;0.83;;;;;;;6.95;57.48;94167.03;5093698;28;20199;-75
2021/03/13 10:23:28;;;;;;;1.80;1.13;;;;;;;6.84;57.17;94160.41;5116509;27;20631;-75
2021/03/13 10:26:00;;;;;;;1.50;0.73;;;;;;;6.82;57.56;94146.88;5098245;27;20172;-75
2021/03/13 10:28:37;;;;;;;1.87;0.53;;;;;;;6.95;57.83;94143.81;5095956;28;20175;-78
2021/03/13 10:31:11;;;;;;;1.83;0.70;;;;;;;6.97;57.85;94154.78;5092250;28;20196;-75
2021/03/13 10:33:41;;;;;;;1.07;0.53;;;;;;;6.91;57.60;94145.91;5119035;27;20181;-75
2021/03/13 10:36:07;;;;;;;1.27;0.50;;;;;;;6.75;58.15;94161.34;5114847;27;20176;-75
2021/03/13 10:38:44;;;;;;;0.87;0.50;;;;;;;6.74;58.11;94149.44;5115461;27;20261;-75
2021/03/13 10:41:12;;;;;;;3.63;1.07;;;;;;;6.81;58.67;94147.84;5115778;27;20705;-74
2021/03/13 10:43:39;;;;;;;1.47;0.70;;;;;;;6.65;58.02;94152.94;5115944;27;20191;-74
2021/03/13 10:46:11;;;;;;;6.93;0.70;;;;;;;6.61;58.67;94143.91;5100371;28;20176;-74
2021/03/13 10:48:59;;;;;;;2.47;0.50;;;;;;;6.61;59.29;94149.88;5078136;28;20718;-75
2021/03/13 10:51:25;;;;;;;0.93;0.50;;;;;;;6.49;60.27;94157.09;5095038;28;20210;-74
2021/03/13 10:53:51;;;;;;;3.53;0.80;;;;;;;6.49;60.92;94133.88;5095068;28;20163;-74
2021/03/13 10:56:16;;;;;;;1.63;0.70;;;;;;;6.50;60.66;94127.75;5095879;28;20188;-75
2021/03/13 10:58:50;;;;;;;0.40;0.40;;;;;;;6.40;59.95;94134.03;5113342;28;20206;-75
2021/03/13 11:01:16;;;;;;;0.90;0.57;;;;;;;6.34;60.50;94125.13;5094892;28;20191;-74
2021/03/13 11:03:43;;;;;;;3.27;0.60;;;;;;;6.28;61.56;94146.41;5094918;28;20203;-74
2021/03/13 11:06:09;;;;;;;1.47;0.40;;;;;;;6.29;62.46;94135.13;5094348;28;20714;-75
2021/03/13 11:08:34;;;;;;;3.00;0.77;;;;;;;6.28;62.23;94154.13;5095112;28;20236;-75
2021/03/13 11:10:59;;;;;;;2.10;0.80;;;;;;;6.24;63.05;94150.22;5112800;28;20207;-75
2021/03/13 11:13:25;;;;;;;2.73;0.70;;;;;;;6.17;62.09;94167.28;5095108;28;20550;-75
2021/03/13 11:15:51;;;;;;;2.50;0.83;;;;;;;6.19;63.37;94155.88;5075052;28;20643;-76
2021/03/13 11:18:17;;;;;;;0.90;0.60;;;;;;;6.05;64.28;94158.19;5076912;28;20263;-75
2021/03/13 11:20:43;;;;;;;4.47;0.80;;;;;;;5.95;64.50;94151.41;5108060;27;20255;-76
2021/03/13 11:23:09;;;;;;;0.73;0.73;;;;;;;5.89;66.00;94167.44;5102725;27;20179;-76
2021/03/13 11:25:35;;;;;;;1.93;0.60;;;;;;;5.81;66.11;94200.88;5093909;28;20198;-76
2021/03/13 11:28:00;;;;;;;1.97;0.70;;;;;;;5.64;66.46;94209.44;5099031;28;20631;-74
2021/03/13 11:30:26;;;;;;;3.60;0.50;;;;;;;5.40;67.02;94166.31;5091404;28;20751;-75
2021/03/13 11:32:52;;;;;;;1.97;0.70;;;;;;;5.47;68.62;94174.22;5116731;27;20216;-76
2021/03/13 11:35:19;;;;;;;1.60;0.60;;;;;;;5.45;68.06;94165.84;5097522;27;20174;-77
2021/03/13 11:37:45;;;;;;;2.00;0.50;;;;;;;5.54;68.87;94170.09;5103319;28;20242;-75
2021/03/13 11:40:10;;;;;;;2.13;0.77;;;;;;;5.55;68.72;94171.72;5111693;28;20290;-76
2021/03/13 11:42:36;;;;;;;2.23;0.80;;;;;;;5.45;69.40;94171.81;5099828;27;20764;-76
2021/03/13 11:45:04;;;;;;;1.63;0.40;;;;;;;5.28;69.77;94199.19;5096795;27;20192;-76
2021/03/13 11:47:30;;;;;;;0.93;0.43;;;;;;;5.50;70.83;94184.25;5105964;27;20171;-76
2021/03/13 11:49:55;;;;;;;1.40;0.70;;;;;;;5.27;71.48;94197.56;5115065;27;20665;-75